createdAt,value
2019-03-15T00:00:35.312Z,986.42
2019-03-15T00:01:35.292Z,986.39
2019-03-15T00:02:35.283Z,986.36
2019-03-15T00:03:35.284Z,986.44
2019-03-15T00:04:35.313Z,986.45
2019-03-15T00:05:35.253Z,986.41
2019-03-15T00:06:35.243Z,986.46
2019-03-15T00:07:35.301Z,986.44
2019-03-15T00:08:35.232Z,986.43
2019-03-15T00:09:35.215Z,986.47
2019-03-15T00:10:35.236Z,986.38
2019-03-15T00:11:35.215Z,986.38
2019-03-15T00:12:35.186Z,986.39
2019-03-15T00:13:35.173Z,986.33
2019-03-15T00:14:35.167Z,986.26
2019-03-15T00:15:35.153Z,986.33
2019-03-15T00:16:35.176Z,986.29
2019-03-15T00:17:35.134Z,986.28
2019-03-15T00:18:48.463Z,986.24
2019-03-15T00:19:35.096Z,986.27
2019-03-15T00:20:35.097Z,986.38
2019-03-15T00:21:35.073Z,986.30
2019-03-15T00:22:35.203Z,986.28
2019-03-15T00:23:35.054Z,986.28
2019-03-15T00:24:35.049Z,986.32
2019-03-15T00:25:35.040Z,986.26
2019-03-15T00:26:35.028Z,986.22
2019-03-15T00:27:35.035Z,986.24
2019-03-15T00:28:35.001Z,986.27
2019-03-15T00:29:34.993Z,986.21
2019-03-15T00:30:34.986Z,986.19
2019-03-15T00:31:34.976Z,986.24
2019-03-15T00:32:34.984Z,986.17
2019-03-15T00:33:34.985Z,986.22
2019-03-15T00:34:34.941Z,986.20
2019-03-15T00:35:35.861Z,986.23
2019-03-15T00:36:34.918Z,986.21
2019-03-15T00:37:34.902Z,986.15
2019-03-15T00:38:34.899Z,986.15
2019-03-15T00:39:34.948Z,986.18
2019-03-15T00:40:34.892Z,986.08
2019-03-15T00:41:34.868Z,986.16
2019-03-15T00:42:34.864Z,986.05
2019-03-15T00:43:34.845Z,986.11
2019-03-15T00:44:34.851Z,986.13
2019-03-15T00:45:34.908Z,986.11
2019-03-15T00:46:34.818Z,986.06
2019-03-15T00:47:34.814Z,986.07
2019-03-15T00:48:34.792Z,986.04
2019-03-15T00:49:47.476Z,986.00
2019-03-15T00:50:34.758Z,985.96
2019-03-15T00:51:34.786Z,985.96
2019-03-15T00:52:34.745Z,986.03
2019-03-15T00:53:34.732Z,985.98
2019-03-15T00:54:34.718Z,985.99
2019-03-15T00:55:34.712Z,985.94
2019-03-15T00:56:34.732Z,986.02
2019-03-15T00:57:34.768Z,985.90
2019-03-15T00:58:34.677Z,985.98
2019-03-15T00:59:34.708Z,985.95
2019-03-15T01:00:34.657Z,985.90
2019-03-15T01:01:34.643Z,985.90
2019-03-15T01:02:34.681Z,985.92
2019-03-15T01:03:34.723Z,985.90
2019-03-15T01:04:34.621Z,985.94
2019-03-15T01:05:34.632Z,985.87
2019-03-15T01:06:34.587Z,985.97
2019-03-15T01:07:34.592Z,985.88
2019-03-15T01:08:35.441Z,985.89
2019-03-15T01:09:34.597Z,985.88
2019-03-15T01:10:34.546Z,985.91
2019-03-15T01:11:34.537Z,985.87
2019-03-15T01:12:34.532Z,985.87
2019-03-15T01:13:34.526Z,985.77
2019-03-15T01:14:34.583Z,985.80
2019-03-15T01:15:34.515Z,985.79
2019-03-15T01:16:34.772Z,985.85
2019-03-15T01:17:34.474Z,985.77
2019-03-15T01:18:34.464Z,985.83
2019-03-15T01:19:34.449Z,985.79
2019-03-15T01:20:47.040Z,985.77
2019-03-15T01:21:34.424Z,985.79
2019-03-15T01:22:34.419Z,985.77
2019-03-15T01:23:34.402Z,985.78
2019-03-15T01:24:34.396Z,985.73
2019-03-15T01:25:34.388Z,985.77
2019-03-15T01:26:34.415Z,985.67
2019-03-15T01:27:34.364Z,985.70
2019-03-15T01:28:34.352Z,985.67
2019-03-15T01:29:34.344Z,985.69
2019-03-15T01:30:34.330Z,985.66
2019-03-15T01:31:34.319Z,985.67
2019-03-15T01:32:34.353Z,985.64
2019-03-15T01:33:34.298Z,985.63
2019-03-15T01:34:34.294Z,985.62
2019-03-15T01:35:34.301Z,985.64
2019-03-15T01:36:34.275Z,985.63
2019-03-15T01:37:34.269Z,985.62
2019-03-15T01:38:34.262Z,985.60
2019-03-15T01:39:34.258Z,985.61
2019-03-15T01:40:34.218Z,985.63
2019-03-15T01:41:34.216Z,985.60
2019-03-15T01:42:34.211Z,985.66
2019-03-15T01:43:34.237Z,985.58
2019-03-15T01:44:34.185Z,985.59
2019-03-15T01:45:34.183Z,985.61
2019-03-15T01:46:34.197Z,985.55
2019-03-15T01:47:34.144Z,985.54
2019-03-15T01:48:34.144Z,985.59
2019-03-15T01:49:34.209Z,985.52
2019-03-15T01:50:34.128Z,985.54
2019-03-15T01:51:47.202Z,985.51
2019-03-15T01:52:34.092Z,985.53
2019-03-15T01:53:34.087Z,985.49
2019-03-15T01:54:34.071Z,985.61
2019-03-15T01:55:34.074Z,985.50
2019-03-15T01:56:34.053Z,985.54
2019-03-15T01:57:34.039Z,985.47
2019-03-15T01:58:34.033Z,985.47
2019-03-15T01:59:34.018Z,985.46
2019-03-15T02:00:34.040Z,985.46
2019-03-15T02:01:34.008Z,985.50
2019-03-15T02:02:33.991Z,985.49
2019-03-15T02:03:33.992Z,985.47
2019-03-15T02:04:33.979Z,985.53
2019-03-15T02:05:33.955Z,985.46
2019-03-15T02:06:33.959Z,985.51
2019-03-15T02:07:34.632Z,985.47
2019-03-15T02:08:33.932Z,985.46
2019-03-15T02:09:33.924Z,985.51
2019-03-15T02:10:33.941Z,985.43
2019-03-15T02:11:33.900Z,985.49
2019-03-15T02:12:33.921Z,985.50
2019-03-15T02:13:33.874Z,985.42
2019-03-15T02:14:33.858Z,985.42
2019-03-15T02:15:33.904Z,985.44
2019-03-15T02:16:34.456Z,985.51
2019-03-15T02:17:33.824Z,985.42
2019-03-15T02:18:33.829Z,985.46
2019-03-15T02:19:33.796Z,985.39
2019-03-15T02:20:33.954Z,985.41
2019-03-15T02:21:33.800Z,985.41
2019-03-15T02:22:46.929Z,985.35
2019-03-15T02:23:33.801Z,985.37
2019-03-15T02:24:33.752Z,985.37
2019-03-15T02:25:33.739Z,985.37
2019-03-15T02:26:33.728Z,985.34
2019-03-15T02:27:33.711Z,985.35
2019-03-15T02:28:33.711Z,985.41
2019-03-15T02:29:33.730Z,985.37
2019-03-15T02:30:33.807Z,985.32
2019-03-15T02:31:33.672Z,985.35
2019-03-15T02:32:33.667Z,985.29
2019-03-15T02:33:34.098Z,985.29
2019-03-15T02:34:33.639Z,985.28
2019-03-15T02:35:33.670Z,985.33
2019-03-15T02:36:33.644Z,985.29
2019-03-15T02:37:33.994Z,985.28
2019-03-15T02:38:33.598Z,985.26
2019-03-15T02:39:33.585Z,985.21
2019-03-15T02:40:33.573Z,985.24
2019-03-15T02:41:33.583Z,985.28
2019-03-15T02:42:33.559Z,985.22
2019-03-15T02:43:33.539Z,985.22
2019-03-15T02:44:33.548Z,985.20
2019-03-15T02:45:33.567Z,985.18
2019-03-15T02:46:33.539Z,985.21
2019-03-15T02:47:33.501Z,985.19
2019-03-15T02:48:33.497Z,985.20
2019-03-15T02:49:34.827Z,985.18
2019-03-15T02:50:33.485Z,985.22
2019-03-15T02:51:33.462Z,985.22
2019-03-15T02:52:33.608Z,985.18
2019-03-15T02:53:46.226Z,985.18
2019-03-15T02:54:33.440Z,985.16
2019-03-15T02:55:33.407Z,985.13
2019-03-15T02:56:33.404Z,985.14
2019-03-15T02:57:33.438Z,985.11
2019-03-15T02:58:33.377Z,985.13
2019-03-15T02:59:33.373Z,985.16
2019-03-15T03:00:33.364Z,985.15
2019-03-15T03:01:33.976Z,985.17
2019-03-15T03:02:33.336Z,985.14
2019-03-15T03:03:33.364Z,985.11
2019-03-15T03:04:33.365Z,985.06
2019-03-15T03:05:34.327Z,985.12
2019-03-15T03:06:33.300Z,985.16
2019-03-15T03:07:33.307Z,985.10
2019-03-15T03:08:33.281Z,985.12
2019-03-15T03:09:34.182Z,985.16
2019-03-15T03:10:33.255Z,985.08
2019-03-15T03:11:33.252Z,985.06
2019-03-15T03:12:33.231Z,985.09
2019-03-15T03:13:33.220Z,985.04
2019-03-15T03:14:33.314Z,985.07
2019-03-15T03:15:33.213Z,985.06
2019-03-15T03:16:33.188Z,985.03
2019-03-15T03:17:33.181Z,985.05
2019-03-15T03:18:34.557Z,985.01
2019-03-15T03:19:33.165Z,985.05
2019-03-15T03:20:33.164Z,985.05
2019-03-15T03:21:33.141Z,985.07
2019-03-15T03:22:33.132Z,985.03
2019-03-15T03:23:33.201Z,985.04
2019-03-15T03:24:45.777Z,984.99
2019-03-15T03:25:33.126Z,985.04
2019-03-15T03:26:33.083Z,985.05
2019-03-15T03:27:34.041Z,984.98
2019-03-15T03:28:33.066Z,984.97
2019-03-15T03:29:33.050Z,985.05
2019-03-15T03:30:33.054Z,985.06
2019-03-15T03:31:33.297Z,985.03
2019-03-15T03:32:33.025Z,985.05
2019-03-15T03:33:33.007Z,985.00
2019-03-15T03:34:33.050Z,985.02
2019-03-15T03:35:32.987Z,985.05
2019-03-15T03:36:32.977Z,985.05
2019-03-15T03:37:32.994Z,985.01
2019-03-15T03:38:32.949Z,985.01
2019-03-15T03:39:34.329Z,985.07
2019-03-15T03:40:32.965Z,985.06
2019-03-15T03:41:32.938Z,985.05
2019-03-15T03:42:32.913Z,985.01
2019-03-15T03:43:32.913Z,985.05
2019-03-15T03:44:32.897Z,985.03
2019-03-15T03:45:32.870Z,985.09
2019-03-15T03:46:32.868Z,985.01
2019-03-15T03:47:33.332Z,985.02
2019-03-15T03:48:32.889Z,984.98
2019-03-15T03:49:32.826Z,985.02
2019-03-15T03:50:32.816Z,985.04
2019-03-15T03:51:32.807Z,985.00
2019-03-15T03:52:32.795Z,984.92
2019-03-15T03:53:32.793Z,984.95
2019-03-15T03:54:32.789Z,984.90
2019-03-15T03:55:46.002Z,985.01
2019-03-15T03:56:32.751Z,984.97
2019-03-15T03:57:32.852Z,985.05
2019-03-15T03:58:32.736Z,984.99
2019-03-15T03:59:32.760Z,984.97
2019-03-15T04:00:32.718Z,985.02
2019-03-15T04:01:32.703Z,984.99
2019-03-15T04:02:33.158Z,984.97
2019-03-15T04:03:32.681Z,984.97
2019-03-15T04:04:32.672Z,984.94
2019-03-15T04:05:32.709Z,984.92
2019-03-15T04:06:32.651Z,984.92
2019-03-15T04:07:32.640Z,984.97
2019-03-15T04:08:32.647Z,984.91
2019-03-15T04:09:32.623Z,984.85
2019-03-15T04:10:32.613Z,984.93
2019-03-15T04:11:32.648Z,984.87
2019-03-15T04:12:32.589Z,984.92
2019-03-15T04:13:32.584Z,984.92
2019-03-15T04:14:32.578Z,984.91
2019-03-15T04:15:32.547Z,984.82
2019-03-15T04:16:32.548Z,984.91
2019-03-15T04:17:32.603Z,984.87
2019-03-15T04:18:32.527Z,984.86
2019-03-15T04:19:32.516Z,984.83
2019-03-15T04:20:32.496Z,984.87
2019-03-15T04:21:32.516Z,984.82
2019-03-15T04:22:32.473Z,984.88
2019-03-15T04:23:32.503Z,984.72
2019-03-15T04:24:32.456Z,984.87
2019-03-15T04:25:32.447Z,984.83
2019-03-15T04:26:44.254Z,984.77
2019-03-15T04:27:32.425Z,984.84
2019-03-15T04:28:32.405Z,984.84
2019-03-15T04:29:32.517Z,984.90
2019-03-15T04:30:32.392Z,984.78
2019-03-15T04:31:32.381Z,984.75
2019-03-15T04:32:32.387Z,984.81
2019-03-15T04:33:32.355Z,984.81
2019-03-15T04:34:32.364Z,984.80
2019-03-15T04:35:32.344Z,984.79
2019-03-15T04:36:32.326Z,984.76
2019-03-15T04:37:32.308Z,984.82
2019-03-15T04:38:32.356Z,984.79
2019-03-15T04:39:32.289Z,984.79
2019-03-15T04:40:32.285Z,984.78
2019-03-15T04:41:32.281Z,984.76
2019-03-15T04:42:32.256Z,984.79
2019-03-15T04:43:32.257Z,984.77
2019-03-15T04:44:32.236Z,984.82
2019-03-15T04:45:32.261Z,984.77
2019-03-15T04:46:32.223Z,984.86
2019-03-15T04:47:32.213Z,984.78
2019-03-15T04:48:32.199Z,984.79
2019-03-15T04:49:32.208Z,984.77
2019-03-15T04:50:32.186Z,984.83
2019-03-15T04:51:32.189Z,984.80
2019-03-15T04:52:32.167Z,984.82
2019-03-15T04:53:32.145Z,984.78
2019-03-15T04:54:32.132Z,984.87
2019-03-15T04:55:32.167Z,984.83
2019-03-15T04:56:32.103Z,984.82
2019-03-15T04:57:44.258Z,984.80
2019-03-15T04:58:32.084Z,984.81
2019-03-15T04:59:32.069Z,984.84
2019-03-15T05:00:32.065Z,984.82
2019-03-15T05:01:32.049Z,984.83
2019-03-15T05:02:32.043Z,984.83
2019-03-15T05:03:32.061Z,984.85
2019-03-15T05:04:32.020Z,984.83
2019-03-15T05:05:32.023Z,984.84
2019-03-15T05:06:31.998Z,984.82
2019-03-15T05:07:31.985Z,984.83
2019-03-15T05:08:32.011Z,984.79
2019-03-15T05:09:32.002Z,984.73
2019-03-15T05:10:31.950Z,984.82
2019-03-15T05:11:31.948Z,984.85
2019-03-15T05:12:31.951Z,984.86
2019-03-15T05:13:31.938Z,984.81
2019-03-15T05:14:31.960Z,984.82
2019-03-15T05:15:31.902Z,984.82
2019-03-15T05:16:31.884Z,984.84
2019-03-15T05:17:31.871Z,984.84
2019-03-15T05:18:32.013Z,984.77
2019-03-15T05:19:31.903Z,984.75
2019-03-15T05:20:31.881Z,984.84
2019-03-15T05:21:31.834Z,984.82
2019-03-15T05:22:31.818Z,984.70
2019-03-15T05:23:31.810Z,984.73
2019-03-15T05:24:31.803Z,984.74
2019-03-15T05:25:31.803Z,984.74
2019-03-15T05:26:31.822Z,984.77
2019-03-15T05:27:31.770Z,984.72
2019-03-15T05:28:43.926Z,984.70
2019-03-15T05:29:31.745Z,984.67
2019-03-15T05:30:31.735Z,984.69
2019-03-15T05:31:31.718Z,984.70
2019-03-15T05:32:31.718Z,984.73
2019-03-15T05:33:31.699Z,984.68
2019-03-15T05:34:31.692Z,984.69
2019-03-15T05:35:31.684Z,984.67
2019-03-15T05:36:31.666Z,984.74
2019-03-15T05:37:31.694Z,984.71
2019-03-15T05:38:34.693Z,984.67
2019-03-15T05:39:31.652Z,984.67
2019-03-15T05:40:31.625Z,984.65
2019-03-15T05:41:31.616Z,984.65
2019-03-15T05:42:31.603Z,984.63
2019-03-15T05:43:31.631Z,984.63
2019-03-15T05:44:31.579Z,984.56
2019-03-15T05:45:31.578Z,984.64
2019-03-15T05:46:31.568Z,984.64
2019-03-15T05:47:31.554Z,984.61
2019-03-15T05:48:31.537Z,984.61
2019-03-15T05:49:31.564Z,984.60
2019-03-15T05:50:31.511Z,984.62
2019-03-15T05:51:31.503Z,984.64
2019-03-15T05:52:31.514Z,984.62
2019-03-15T05:53:31.488Z,984.57
2019-03-15T05:54:31.470Z,984.62
2019-03-15T05:55:31.803Z,984.59
2019-03-15T05:56:31.441Z,984.64
2019-03-15T05:57:31.444Z,984.61
2019-03-15T05:58:31.429Z,984.61
2019-03-15T05:59:42.288Z,984.62
2019-03-15T06:00:31.442Z,984.54
2019-03-15T06:01:31.394Z,984.57
2019-03-15T06:02:31.445Z,984.59
2019-03-15T06:03:31.365Z,984.60
2019-03-15T06:04:31.361Z,984.58
2019-03-15T06:05:31.349Z,984.55
2019-03-15T06:06:31.416Z,984.58
2019-03-15T06:07:31.327Z,984.60
2019-03-15T06:08:31.316Z,984.64
2019-03-15T06:09:31.305Z,984.60
2019-03-15T06:10:31.319Z,984.59
2019-03-15T06:11:31.287Z,984.61
2019-03-15T06:12:31.325Z,984.57
2019-03-15T06:13:31.259Z,984.65
2019-03-15T06:14:31.245Z,984.60
2019-03-15T06:15:31.252Z,984.61
2019-03-15T06:16:31.242Z,984.58
2019-03-15T06:17:31.213Z,984.59
2019-03-15T06:18:31.229Z,984.53
2019-03-15T06:19:31.211Z,984.57
2019-03-15T06:20:31.190Z,984.57
2019-03-15T06:21:31.789Z,984.60
2019-03-15T06:22:31.158Z,984.60
2019-03-15T06:23:31.229Z,984.64
2019-03-15T06:24:31.173Z,984.58
2019-03-15T06:25:31.128Z,984.64
2019-03-15T06:26:31.120Z,984.62
2019-03-15T06:27:31.402Z,984.60
2019-03-15T06:28:31.108Z,984.50
2019-03-15T06:29:31.087Z,984.57
2019-03-15T06:30:44.844Z,984.55
2019-03-15T06:31:31.126Z,984.56
2019-03-15T06:32:31.053Z,984.53
2019-03-15T06:33:31.096Z,984.52
2019-03-15T06:34:31.027Z,984.54
2019-03-15T06:35:31.010Z,984.62
2019-03-15T06:36:31.035Z,984.53
2019-03-15T06:37:31.082Z,984.60
2019-03-15T06:38:33.394Z,984.59
2019-03-15T06:39:30.967Z,984.60
2019-03-15T06:40:30.976Z,984.56
2019-03-15T06:41:30.953Z,984.63
2019-03-15T06:42:30.963Z,984.60
2019-03-15T06:43:30.926Z,984.66
2019-03-15T06:44:30.915Z,984.71
2019-03-15T06:45:32.065Z,984.58
2019-03-15T06:46:30.899Z,984.58
2019-03-15T06:47:30.881Z,984.67
2019-03-15T06:48:30.908Z,984.54
2019-03-15T06:49:30.855Z,984.56
2019-03-15T06:50:30.975Z,984.65
2019-03-15T06:51:30.854Z,984.62
2019-03-15T06:52:30.826Z,984.62
2019-03-15T06:53:30.820Z,984.68
2019-03-15T06:54:30.808Z,984.66
2019-03-15T06:55:30.821Z,984.64
2019-03-15T06:56:30.778Z,984.64
2019-03-15T06:57:30.886Z,984.69
2019-03-15T06:58:30.755Z,984.64
2019-03-15T06:59:30.809Z,984.62
2019-03-15T07:00:30.757Z,984.60
2019-03-15T07:01:43.412Z,984.67
2019-03-15T07:02:30.715Z,984.63
2019-03-15T07:03:30.710Z,984.56
2019-03-15T07:04:30.693Z,984.61
2019-03-15T07:05:30.690Z,984.51
2019-03-15T07:06:30.671Z,984.51
2019-03-15T07:07:30.656Z,984.55
2019-03-15T07:08:30.653Z,984.56
2019-03-15T07:09:31.024Z,984.59
2019-03-15T07:10:30.657Z,984.61
2019-03-15T07:11:30.638Z,984.51
2019-03-15T07:12:30.599Z,984.58
2019-03-15T07:13:30.594Z,984.45
2019-03-15T07:14:30.589Z,984.58
2019-03-15T07:15:30.578Z,984.58
2019-03-15T07:16:30.583Z,984.64
2019-03-15T07:17:30.553Z,984.60
2019-03-15T07:18:30.540Z,984.68
2019-03-15T07:19:30.754Z,984.54
2019-03-15T07:20:30.541Z,984.56
2019-03-15T07:21:30.521Z,984.52
2019-03-15T07:22:30.502Z,984.50
2019-03-15T07:23:30.687Z,984.59
2019-03-15T07:24:30.474Z,984.54
2019-03-15T07:25:31.368Z,984.55
2019-03-15T07:26:30.473Z,984.59
2019-03-15T07:27:30.561Z,984.58
2019-03-15T07:28:30.437Z,984.62
2019-03-15T07:29:30.418Z,984.62
2019-03-15T07:30:30.406Z,984.64
2019-03-15T07:31:30.398Z,984.68
2019-03-15T07:32:42.936Z,984.60
2019-03-15T07:33:30.398Z,984.60
2019-03-15T07:34:30.368Z,984.56
2019-03-15T07:35:30.352Z,984.58
2019-03-15T07:36:30.444Z,984.61
2019-03-15T07:37:30.503Z,984.62
2019-03-15T07:38:30.363Z,984.61
2019-03-15T07:39:30.309Z,984.67
2019-03-15T07:40:30.305Z,984.65
2019-03-15T07:41:30.295Z,984.67
2019-03-15T07:42:30.276Z,984.67
2019-03-15T07:43:30.263Z,984.70
2019-03-15T07:44:30.331Z,984.68
2019-03-15T07:45:30.249Z,984.66
2019-03-15T07:46:30.278Z,984.75
2019-03-15T07:47:30.404Z,984.64
2019-03-15T07:48:30.280Z,984.65
2019-03-15T07:49:30.197Z,984.66
2019-03-15T07:50:30.295Z,984.68
2019-03-15T07:51:30.251Z,984.70
2019-03-15T07:52:30.173Z,984.63
2019-03-15T07:53:30.390Z,984.63
2019-03-15T07:54:37.900Z,984.66
2019-03-15T07:55:31.129Z,984.62
2019-03-15T07:56:30.130Z,984.69
2019-03-15T07:57:30.124Z,984.69
2019-03-15T07:58:30.141Z,984.63
2019-03-15T07:59:30.161Z,984.69
2019-03-15T08:00:30.165Z,984.67
2019-03-15T08:01:30.072Z,984.65
2019-03-15T08:02:30.053Z,984.65
2019-03-15T08:03:41.944Z,984.70
2019-03-15T08:04:30.033Z,984.71
2019-03-15T08:05:30.040Z,984.77
2019-03-15T08:06:34.980Z,984.77
2019-03-15T08:07:36.150Z,984.76
2019-03-15T08:08:31.046Z,984.76
2019-03-15T08:09:29.982Z,984.73
2019-03-15T08:10:29.978Z,984.79
2019-03-15T08:11:29.980Z,984.71
2019-03-15T08:12:29.936Z,984.76
2019-03-15T08:13:29.937Z,984.74
2019-03-15T08:14:29.946Z,984.79
2019-03-15T08:15:29.901Z,984.77
2019-03-15T08:16:29.906Z,984.76
2019-03-15T08:17:29.892Z,984.77
2019-03-15T08:18:29.876Z,984.85
2019-03-15T08:19:29.912Z,984.79
2019-03-15T08:20:29.861Z,984.74
2019-03-15T08:21:29.924Z,984.79
2019-03-15T08:22:29.837Z,984.83
2019-03-15T08:23:29.822Z,984.80
2019-03-15T08:24:30.065Z,984.80
2019-03-15T08:25:29.899Z,984.82
2019-03-15T08:26:30.340Z,984.79
2019-03-15T08:27:29.779Z,984.77
2019-03-15T08:28:29.766Z,984.79
2019-03-15T08:29:29.755Z,984.82
2019-03-15T08:30:29.747Z,984.85
2019-03-15T08:31:29.746Z,984.84
2019-03-15T08:32:29.713Z,984.86
2019-03-15T08:33:29.708Z,984.82
2019-03-15T08:34:42.067Z,984.72
2019-03-15T08:35:29.683Z,984.81
2019-03-15T08:36:29.758Z,984.83
2019-03-15T08:37:29.666Z,984.78
2019-03-15T08:38:29.652Z,984.78
2019-03-15T08:39:29.633Z,984.80
2019-03-15T08:40:29.627Z,984.78
2019-03-15T08:41:29.625Z,984.79
2019-03-15T08:42:29.644Z,984.80
2019-03-15T08:43:29.595Z,984.77
2019-03-15T08:44:29.577Z,984.81
2019-03-15T08:45:29.636Z,984.73
2019-03-15T08:46:29.591Z,984.81
2019-03-15T08:47:29.565Z,984.79
2019-03-15T08:48:31.794Z,984.80
2019-03-15T08:49:29.531Z,984.75
2019-03-15T08:50:29.535Z,984.83
2019-03-15T08:51:29.525Z,984.78
2019-03-15T08:52:29.791Z,984.82
2019-03-15T08:53:29.489Z,984.79
2019-03-15T08:54:29.656Z,984.80
2019-03-15T08:55:29.483Z,984.82
2019-03-15T08:56:30.732Z,984.89
2019-03-15T08:57:29.435Z,984.85
2019-03-15T08:58:29.441Z,984.85
2019-03-15T08:59:29.582Z,984.86
2019-03-15T09:00:29.447Z,984.86
2019-03-15T09:01:29.389Z,984.83
2019-03-15T09:02:29.373Z,984.89
2019-03-15T09:03:29.366Z,984.83
2019-03-15T09:04:29.389Z,984.93
2019-03-15T09:05:42.058Z,984.88
2019-03-15T09:06:29.344Z,984.87
2019-03-15T09:07:29.316Z,984.85
2019-03-15T09:08:29.305Z,984.86
2019-03-15T09:09:29.375Z,984.86
2019-03-15T09:10:29.281Z,984.87
2019-03-15T09:11:29.288Z,984.91
2019-03-15T09:12:29.264Z,984.88
2019-03-15T09:13:29.300Z,984.92
2019-03-15T09:14:29.252Z,984.92
2019-03-15T09:15:30.824Z,984.92
2019-03-15T09:16:29.241Z,984.91
2019-03-15T09:17:29.219Z,984.92
2019-03-15T09:18:29.207Z,984.96
2019-03-15T09:19:29.515Z,984.90
2019-03-15T09:20:30.044Z,984.95
2019-03-15T09:21:29.159Z,984.97
2019-03-15T09:22:29.536Z,984.99
2019-03-15T09:23:29.136Z,984.99
2019-03-15T09:24:29.126Z,985.00
2019-03-15T09:25:29.112Z,984.95
2019-03-15T09:26:29.160Z,985.06
2019-03-15T09:27:29.120Z,985.07
2019-03-15T09:28:29.083Z,985.08
2019-03-15T09:29:29.074Z,984.99
2019-03-15T09:30:29.069Z,985.00
2019-03-15T09:31:36.987Z,985.03
2019-03-15T09:32:30.068Z,984.98
2019-03-15T09:33:29.048Z,985.01
2019-03-15T09:34:29.024Z,985.06
2019-03-15T09:35:29.016Z,985.05
2019-03-15T09:36:50.022Z,985.05
2019-03-15T09:37:29.979Z,985.05
2019-03-15T09:38:29.015Z,985.07
2019-03-15T09:39:28.961Z,985.03
2019-03-15T09:40:28.947Z,985.08
2019-03-15T09:41:32.184Z,985.00
2019-03-15T09:42:29.941Z,984.96
2019-03-15T09:43:28.919Z,985.02
2019-03-15T09:44:28.962Z,985.02
2019-03-15T09:45:28.904Z,985.05
2019-03-15T09:46:28.884Z,985.00
2019-03-15T09:47:28.907Z,985.01
2019-03-15T09:48:28.878Z,985.10
2019-03-15T09:49:28.858Z,985.07
2019-03-15T09:50:36.031Z,985.08
2019-03-15T09:51:29.835Z,985.08
2019-03-15T09:52:28.823Z,985.04
2019-03-15T09:53:28.853Z,985.06
2019-03-15T09:54:28.803Z,985.02
2019-03-15T09:55:33.165Z,984.97
2019-03-15T09:56:28.788Z,985.01
2019-03-15T09:57:28.797Z,985.09
2019-03-15T09:58:28.751Z,985.07
2019-03-15T09:59:28.803Z,985.04
2019-03-15T10:00:28.738Z,985.05
2019-03-15T10:01:35.261Z,985.03
2019-03-15T10:02:30.867Z,985.10
2019-03-15T10:03:28.709Z,985.08
2019-03-15T10:04:28.686Z,985.11
2019-03-15T10:05:28.697Z,985.14
2019-03-15T10:06:28.704Z,985.16
2019-03-15T10:07:43.354Z,985.11
2019-03-15T10:08:28.637Z,985.09
2019-03-15T10:09:28.626Z,985.15
2019-03-15T10:10:28.617Z,985.14
2019-03-15T10:11:28.631Z,985.16
2019-03-15T10:12:28.631Z,985.24
2019-03-15T10:13:28.589Z,985.21
2019-03-15T10:14:28.583Z,985.17
2019-03-15T10:15:28.560Z,985.18
2019-03-15T10:16:28.558Z,985.27
2019-03-15T10:17:28.542Z,985.20
2019-03-15T10:18:28.552Z,985.24
2019-03-15T10:19:29.872Z,985.23
2019-03-15T10:20:28.518Z,985.20
2019-03-15T10:21:28.495Z,985.27
2019-03-15T10:22:28.529Z,985.18
2019-03-15T10:23:28.483Z,985.19
2019-03-15T10:24:28.508Z,985.19
2019-03-15T10:25:28.532Z,985.20
2019-03-15T10:26:28.440Z,985.21
2019-03-15T10:27:28.537Z,985.23
2019-03-15T10:28:28.591Z,985.20
2019-03-15T10:29:28.475Z,985.19
2019-03-15T10:30:28.406Z,985.25
2019-03-15T10:31:28.394Z,985.28
2019-03-15T10:32:28.379Z,985.26
2019-03-15T10:33:28.357Z,985.30
2019-03-15T10:34:28.358Z,985.27
2019-03-15T10:35:28.361Z,985.35
2019-03-15T10:36:28.338Z,985.32
2019-03-15T10:37:28.315Z,985.27
2019-03-15T10:38:40.917Z,985.31
2019-03-15T10:39:28.330Z,985.30
2019-03-15T10:40:28.287Z,985.32
2019-03-15T10:41:28.285Z,985.32
2019-03-15T10:42:28.259Z,985.33
2019-03-15T10:43:28.251Z,985.33
2019-03-15T10:44:28.243Z,985.37
2019-03-15T10:45:28.239Z,985.34
2019-03-15T10:46:28.302Z,985.42
2019-03-15T10:47:28.206Z,985.39
2019-03-15T10:48:28.195Z,985.41
2019-03-15T10:49:30.697Z,985.39
2019-03-15T10:50:28.219Z,985.39
2019-03-15T10:51:28.176Z,985.38
2019-03-15T10:52:28.205Z,985.45
2019-03-15T10:53:28.141Z,985.44
2019-03-15T10:54:28.125Z,985.38
2019-03-15T10:55:28.130Z,985.39
2019-03-15T10:56:28.239Z,985.37
2019-03-15T10:57:28.095Z,985.44
2019-03-15T10:58:28.094Z,985.40
2019-03-15T10:59:28.078Z,985.37
2019-03-15T11:00:28.068Z,985.42
2019-03-15T11:01:28.128Z,985.38
2019-03-15T11:02:28.037Z,985.36
2019-03-15T11:03:28.121Z,985.40
2019-03-15T11:04:28.030Z,985.40
2019-03-15T11:05:28.005Z,985.43
2019-03-15T11:06:28.000Z,985.39
2019-03-15T11:07:27.988Z,985.40
2019-03-15T11:08:27.971Z,985.47
2019-03-15T11:09:40.666Z,985.34
2019-03-15T11:10:27.972Z,985.38
2019-03-15T11:11:28.078Z,985.39
2019-03-15T11:12:27.927Z,985.42
2019-03-15T11:13:27.920Z,985.41
2019-03-15T11:14:28.025Z,985.41
2019-03-15T11:15:27.895Z,985.45
2019-03-15T11:16:27.885Z,985.45
2019-03-15T11:17:27.891Z,985.44
2019-03-15T11:18:27.875Z,985.42
2019-03-15T11:19:27.858Z,985.38
2019-03-15T11:20:27.849Z,985.46
2019-03-15T11:21:27.839Z,985.37
2019-03-15T11:22:27.828Z,985.43
2019-03-15T11:23:27.825Z,985.37
2019-03-15T11:24:27.800Z,985.35
2019-03-15T11:25:27.814Z,985.37
2019-03-15T11:26:28.170Z,985.35
2019-03-15T11:27:27.774Z,985.28
2019-03-15T11:28:27.838Z,985.31
2019-03-15T11:29:27.742Z,985.32
2019-03-15T11:30:27.751Z,985.35
2019-03-15T11:31:27.750Z,985.28
2019-03-15T11:32:27.715Z,985.39
2019-03-15T11:33:27.695Z,985.30
2019-03-15T11:34:28.664Z,985.29
2019-03-15T11:35:27.689Z,985.23
2019-03-15T11:36:27.664Z,985.32
2019-03-15T11:37:27.673Z,985.28
2019-03-15T11:38:27.642Z,985.31
2019-03-15T11:39:28.167Z,985.26
2019-03-15T11:40:40.594Z,985.34
2019-03-15T11:41:27.631Z,985.35
2019-03-15T11:42:27.636Z,985.27
2019-03-15T11:43:27.582Z,985.37
2019-03-15T11:44:27.577Z,985.32
2019-03-15T11:45:27.567Z,985.37
2019-03-15T11:46:27.549Z,985.32
2019-03-15T11:47:27.549Z,985.32
2019-03-15T11:48:27.671Z,985.31
2019-03-15T11:49:28.415Z,985.31
2019-03-15T11:50:27.527Z,985.33
2019-03-15T11:51:27.517Z,985.36
2019-03-15T11:52:27.488Z,985.32
2019-03-15T11:53:27.478Z,985.32
2019-03-15T11:54:27.529Z,985.34
2019-03-15T11:55:27.457Z,985.40
2019-03-15T11:56:27.493Z,985.35
2019-03-15T11:57:27.459Z,985.34
2019-03-15T11:58:27.425Z,985.31
2019-03-15T11:59:27.411Z,985.31
2019-03-15T12:00:27.515Z,985.42
2019-03-15T12:01:27.402Z,985.32
2019-03-15T12:02:27.442Z,985.32
2019-03-15T12:03:27.384Z,985.29
2019-03-15T12:04:27.355Z,985.29
2019-03-15T12:05:27.347Z,985.28
2019-03-15T12:06:27.367Z,985.29
2019-03-15T12:07:27.337Z,985.28
2019-03-15T12:08:27.322Z,985.27
2019-03-15T12:09:27.301Z,985.25
2019-03-15T12:10:27.334Z,985.24
2019-03-15T12:11:40.239Z,985.17
2019-03-15T12:12:27.301Z,985.22
2019-03-15T12:13:27.257Z,985.18
2019-03-15T12:14:40.198Z,985.17
2019-03-15T12:15:28.227Z,985.20
2019-03-15T12:16:27.226Z,985.18
2019-03-15T12:17:27.216Z,985.19
2019-03-15T12:18:27.294Z,985.18
2019-03-15T12:19:27.192Z,985.13
2019-03-15T12:20:27.253Z,985.15
2019-03-15T12:21:27.193Z,985.21
2019-03-15T12:22:27.161Z,985.21
2019-03-15T12:23:27.155Z,985.17
2019-03-15T12:24:27.164Z,985.19
2019-03-15T12:25:27.132Z,985.23
2019-03-15T12:26:39.463Z,985.24
2019-03-15T12:27:28.102Z,985.25
2019-03-15T12:28:27.093Z,985.25